Latest Weather Observations for Dennes Point

IDT60901

Issued at 9:41 pm EDT Monday 27 March 2017 (issued every 10 minutes, with the page automatically refreshed every 10 minutes)

About weather observations | Map of Hobart area stations | Latest observations for Hobart area | Other Formats
Station Details ID: 094255 Name: DENNES POINT Lat: -43.06 Lon: 147.36 Height: 5.67 m
Data from the previous 72 hours. | See also: Recent months at Dennes Point
Date/Time
EDT
Temp
°C
App
Temp
°C
Dew
Point
°C
Rel
Hum
%
Delta-T
°C
Wind Press
QNH
hPa
Press
MSL
hPa
Rain since
9am
mm
Dir  Spd
km/h
Gust
km/h
Spd
kts
Gust
kts
27/09:30pm 17.3 11.7 7.1 51 5.1 WNW 26 44 14 24 1001.6 1001.6 4.4
27/09:10pm 17.3 11.4 7.4 52 5.0 W 28 46 15 25 1001.5 1001.5 4.4
27/09:00pm 17.3 11.5 7.9 54 4.8 WNW 28 35 15 19 1001.3 1001.3 4.4
27/08:30pm 17.3 14.0 7.9 54 4.8 NW 15 35 8 19 1001.0 1001.0 4.4
27/08:00pm 17.3 14.4 8.2 55 4.7 NW 13 26 7 14 1000.9 1000.9 4.4
27/07:30pm 16.9 13.6 8.1 56 4.5 W 15 20 8 11 1000.4 1000.4 4.4
27/07:00pm 16.8 12.6 7.4 54 4.7 WNW 19 28 10 15 1000.0 1000.0 4.4
27/06:30pm 17.0 10.4 8.4 57 4.4 W 33 48 18 26 999.0 999.0 4.4
27/06:05pm 17.0 12.7 9.2 60 4.0 W 22 57 12 31 998.2 998.2 4.4
27/06:00pm 17.2 14.9 10.3 64 3.7 WNW 13 26 7 14 998.3 998.3 4.4
27/05:30pm 16.0 12.6 10.5 70 2.9 WNW 19 28 10 15 999.1 999.1 4.4
27/05:00pm 15.6 13.4 10.8 73 2.6 NW 13 22 7 12 998.6 998.6 4.4
27/04:30pm 15.5 10.5 12.1 80 1.9 WNW 30 54 16 29 998.3 998.3 3.4
27/04:00pm 17.5 11.9 12.0 70 3.0 WNW 33 54 18 29 997.9 997.9 0.8
27/03:41pm 19.1 12.0 12.1 64 3.9 W 41 61 22 33 996.9 996.9 0.6
27/03:35pm 19.4 10.7 12.7 65 3.8 W 50 85 27 46 996.8 996.8 0.6
27/03:30pm 19.6 9.6 12.1 62 4.2 W 56 85 30 46 996.4 996.4 0.6
27/03:23pm 19.9 9.8 12.4 62 4.2 W 57 80 31 43 996.0 996.0 0.6
27/03:19pm 20.1 10.3 12.6 62 4.2 W 56 80 30 43 995.5 995.5 0.6
27/03:04pm 19.6 12.5 14.0 70 3.2 W 44 65 24 35 995.5 995.5 0.6
27/03:00pm 19.6 12.3 14.4 72 3.0 W 46 65 25 35 995.4 995.4 0.6
27/02:45pm 19.0 10.0 14.9 77 2.4 W 56 80 30 43 995.9 995.9 0.4
27/02:39pm 21.2 16.5 14.4 65 4.0 NW 32 76 17 41 995.3 995.3 0.0
27/02:37pm 25.3 22.1 15.3 54 6.0 NW 26 61 14 33 994.8 994.8 0.0
27/02:30pm 25.4 21.1 15.4 54 6.0 NNW 32 46 17 25 993.9 993.9 0.0
27/02:00pm 23.3 21.4 15.1 60 4.9 NE 19 28 10 15 994.0 994.0 0.0
27/01:30pm 22.8 21.3 15.4 63 4.4 NE 17 26 9 14 994.8 994.8 0.0
27/01:00pm 22.8 23.6 15.9 65 4.2 N 6 9 3 5 995.7 995.7 0.0
27/12:30pm 20.5 20.8 16.1 76 2.6 NNW 9 13 5 7 996.5 996.5 0.0
27/12:00pm 21.3 18.0 16.0 72 3.2 NNE 28 33 15 18 997.3 997.3 0.0
27/11:30am 20.1 18.3 15.9 77 2.5 NNE 20 26 11 14 997.5 997.5 0.0
27/11:00am 20.7 18.1 15.9 74 2.9 NNE 24 30 13 16 998.1 998.1 0.0
27/10:30am 20.5 18.0 16.1 76 2.6 NE 24 32 13 17 998.8 998.8 0.0
27/10:00am 20.9 16.3 16.1 74 2.9 NNE 35 46 19 25 999.6 999.6 0.0
27/09:30am 19.5 16.5 15.8 79 2.2 NE 26 32 14 17 1000.8 1000.8 0.0
27/09:00am 19.7 16.5 15.4 76 2.6 NE 26 35 14 19 1001.4 1001.4 0.0
27/08:30am 20.3 16.3 15.3 73 3.0 NNE 30 41 16 22 1001.9 1001.9 0.0
27/08:00am 18.1 14.9 15.4 84 1.6 NNE 26 33 14 18 1002.7 1002.6 0.0
27/07:30am 17.9 15.4 15.2 84 1.6 NNE 22 26 12 14 1003.0 1002.9 0.0
27/07:00am 17.8 15.3 15.1 84 1.6 N 22 28 12 15 1003.5 1003.4 0.0
27/06:30am 17.7 16.1 15.1 85 1.5 NNE 17 30 9 16 1004.1 1004.0 0.0
27/06:00am 17.1 14.9 14.9 87 1.3 NNE 20 24 11 13 1004.7 1004.6 0.0
27/05:30am 17.5 14.4 14.6 83 1.7 NNE 24 32 13 17 1005.0 1004.9 0.0
27/05:00am 16.8 14.1 14.6 87 1.3 NNE 22 26 12 14 1005.3 1005.2 0.0
27/04:30am 17.0 14.8 14.5 85 1.4 NE 19 24 10 13 1005.8 1005.7 0.0
27/04:00am 17.5 14.4 14.4 82 1.8 NE 24 33 13 18 1006.4 1006.3 0.0
27/03:30am 17.4 13.7 14.9 85 1.4 NE 28 33 15 18 1006.9 1006.8 0.0
27/03:00am 17.3 14.0 14.9 86 1.4 NE 26 32 14 17 1007.6 1007.5 0.0
27/02:30am 16.6 14.0 14.8 89 1.0 N 22 26 12 14 1008.3 1008.2 0.0
27/02:00am 16.7 14.5 14.9 89 1.0 NNE 20 24 11 13 1008.9 1008.8 0.0
27/01:30am 16.9 14.8 14.7 87 1.3 NNE 19 28 10 15 1009.4 1009.3 0.0
27/01:00am 16.7 15.7 14.7 88 1.2 ENE 13 17 7 9 1010.2 1010.1 0.0
27/12:30am 16.8 14.7 14.8 88 1.2 NE 19 24 10 13 1011.0 1010.9 0.0
27/12:00am 16.8 14.6 14.8 88 1.2 NE 20 24 11 13 1011.3 1011.2 0.0
 
Date/Time
EDT
Temp
°C
App
Temp
°C
Dew
Point
°C
Rel
Hum
%
Delta-T
°C
Wind Press
QNH
hPa
Press
MSL
hPa
Rain since
9am
mm
Dir  Spd
km/h
Gust
km/h
Spd
kts
Gust
kts
26/11:30pm 16.8 15.4 14.4 86 1.4 NE 15 19 8 10 1012.0 1011.9 0.0
26/11:00pm 17.0 14.9 14.6 86 1.4 NE 19 20 10 11 1012.7 1012.6 0.0
26/10:30pm 16.8 16.4 15.2 90 0.9 NE 11 15 6 8 1013.0 1012.9 0.0
26/10:00pm 16.8 15.7 15.2 90 0.9 ENE 15 17 8 9 1013.1 1013.0 0.0
26/09:30pm 16.8 16.7 15.0 89 1.0 NE 9 11 5 6 1013.3 1013.2 0.0
26/09:00pm 17.1 16.7 15.1 88 1.2 NE 11 13 6 7 1013.5 1013.4 0.0
26/08:30pm 16.7 17.1 14.7 88 1.2 ENE 6 11 3 6 1013.5 1013.4 0.0
26/08:00pm 16.7 18.1 14.5 87 1.3 CALM 0 0 0 0 1013.6 1013.5 0.0
26/07:30pm 16.9 18.3 14.4 85 1.4 CALM 0 2 0 1 1013.5 1013.4 0.0
26/07:00pm 17.0 17.3 14.5 85 1.4 SSE 6 7 3 4 1013.4 1013.3 0.0
26/06:30pm 17.5 17.3 14.6 83 1.7 SE 9 13 5 7 1013.6 1013.5 0.0
26/06:00pm 17.9 17.3 14.6 81 1.9 SE 11 17 6 9 1013.7 1013.6 0.0
26/05:30pm 18.2 17.4 15.1 82 1.8 SE 13 19 7 10 1013.7 1013.6 0.0
26/05:00pm 18.3 17.2 15.2 82 1.8 ESE 15 22 8 12 1013.8 1013.7 0.0
26/04:30pm 18.6 17.1 15.3 81 1.9 ESE 17 24 9 13 1013.8 1013.7 0.0
26/04:00pm 18.7 16.8 15.2 80 2.0 ESE 19 22 10 12 1013.9 1013.8 0.0
26/03:30pm 19.0 17.4 15.1 78 2.3 ESE 17 22 9 12 1014.2 1014.1 0.0
26/03:00pm 19.0 17.3 14.7 76 2.5 ESE 17 22 9 12 1014.3 1014.2 0.0
26/02:30pm 18.9 16.9 15.0 78 2.3 ESE 19 24 10 13 1014.7 1014.6 0.0
26/02:00pm 18.5 16.6 14.2 76 2.5 ESE 17 20 9 11 1014.9 1014.8 0.0
26/01:30pm 18.3 16.7 14.0 76 2.5 ESE 15 20 8 11 1015.2 1015.1 0.0
26/01:00pm 18.6 17.5 14.3 76 2.5 E 13 15 7 8 1015.6 1015.5 0.0
26/12:30pm 18.6 17.8 13.9 74 2.7 E 11 13 6 7 1015.7 1015.6 0.0
26/12:00pm 18.4 18.6 14.1 76 2.5 E 6 6 3 3 1015.9 1015.8 0.0
26/11:30am 17.9 18.0 13.8 77 2.3 NNE 6 7 3 4 1016.1 1016.1 0.0
26/11:00am 17.1 17.0 13.8 81 1.9 NNE 7 7 4 4 1016.1 1016.1 0.0
26/10:30am 17.1 17.6 14.0 82 1.8 NNE 4 4 2 2 1016.1 1016.1 0.0
26/10:00am 16.4 17.4 13.3 82 1.7 CALM 0 0 0 0 1016.0 1016.0 0.0
26/09:30am 15.8 15.8 13.5 86 1.3 SSW 6 7 3 4 1015.7 1015.6 0.0
26/09:00am 15.4 15.4 13.6 89 1.0 SW 6 6 3 3 1015.5 1015.4 0.0
26/08:30am 14.7 14.4 13.2 91 0.8 SSW 7 9 4 5 1015.2 1015.1 0.0
26/08:00am 14.1 13.7 13.0 93 0.6 SSW 7 9 4 5 1014.9 1014.8 0.0
26/07:30am 13.4 12.4 12.3 93 0.6 SSW 9 9 5 5 1014.3 1014.2 0.0
26/07:00am 13.5 12.9 12.4 93 0.6 SSW 7 7 4 4 1014.1 1014.0 0.0
26/06:30am 13.2 12.5 12.1 93 0.6 SSW 7 9 4 5 1013.9 1013.8 0.0
26/06:00am 13.8 13.5 12.7 93 0.6 SSW 6 7 3 4 1013.6 1013.5 0.0
26/05:30am 13.1 13.3 11.8 92 0.7 SSE 2 6 1 3 1013.7 1013.6 0.0
26/05:00am 13.8 13.5 12.7 93 0.6 SW 6 7 3 4 1013.9 1013.8 0.0
26/04:30am 13.7 13.3 12.4 92 0.7 SSW 6 9 3 5 1013.7 1013.6 0.0
26/04:00am 13.9 13.6 12.6 92 0.7 SW 6 7 3 4 1013.8 1013.7 0.0
26/03:30am 13.7 13.1 12.4 92 0.7 SSW 7 11 4 6 1013.8 1013.7 0.0
26/03:00am 13.7 12.3 12.3 91 0.8 SSW 11 13 6 7 1013.8 1013.7 0.0
26/02:30am 14.2 13.2 12.4 89 1.0 SSW 9 9 5 5 1013.7 1013.6 0.0
26/02:00am 14.0 12.8 12.9 93 0.6 S 11 13 6 7 1013.8 1013.7 0.0
26/01:30am 13.8 12.9 12.7 93 0.6 SSW 9 11 5 6 1013.8 1013.7 0.0
26/01:00am 13.8 12.9 12.7 93 0.6 SSW 9 13 5 7 1013.8 1013.7 0.0
26/12:30am 14.0 13.5 12.7 92 0.7 SW 7 9 4 5 1013.8 1013.7 0.0
26/12:00am 14.2 13.7 12.6 90 0.9 SSW 7 9 4 5 1013.8 1013.7 0.0
 
Date/Time
EDT
Temp
°C
App
Temp
°C
Dew
Point
°C
Rel
Hum
%
Delta-T
°C
Wind Press
QNH
hPa
Press
MSL
hPa
Rain since
9am
mm
Dir  Spd
km/h
Gust
km/h
Spd
kts
Gust
kts
25/11:30pm 14.7 13.9 12.9 89 1.0 SSW 9 11 5 6 1013.8 1013.7 0.0
25/11:00pm 14.9 13.9 13.3 90 0.9 SSW 11 13 6 7 1013.8 1013.7 0.0
25/10:30pm 15.0 14.9 13.2 89 1.0 SW 6 7 3 4 1013.5 1013.4 0.0
25/10:00pm 15.0 14.8 13.0 88 1.1 SW 6 7 3 4 1013.5 1013.4 0.0
25/09:30pm 15.9 16.3 13.6 86 1.3 SSW 4 6 2 3 1013.3 1013.2 0.0
25/09:00pm 16.4 16.6 14.1 86 1.3 SW 6 9 3 5 1013.1 1013.0 0.0
25/08:30pm 17.3 17.8 14.0 81 1.9 ESE 4 6 2 3 1012.7 1012.6 0.0
25/08:00pm 17.6 18.0 15.2 86 1.4 E 7 9 4 5 1012.5 1012.4 0.0
25/07:30pm 17.8 18.0 14.3 80 2.0 ESE 6 9 3 5 1012.3 1012.2 0.0
25/07:00pm 17.8 18.6 12.5 71 2.9 CALM 0 2 0 1 1012.2 1012.1 0.0
25/06:30pm 18.1 18.9 12.5 70 3.1 CALM 0 0 0 0 1011.9 1011.8 0.0
25/06:00pm 18.6 18.1 11.9 65 3.7 ESE 6 6 3 3 1011.8 1011.7 0.0
25/05:30pm 18.9 18.3 11.7 63 4.0 ESE 6 6 3 3 1011.9 1011.8 0.0
25/05:00pm 19.1 18.5 11.7 62 4.1 SE 6 9 3 5 1011.8 1011.7 0.0
25/04:30pm 18.6 17.9 11.9 65 3.7 ESE 7 9 4 5 1011.9 1011.8 0.0
25/04:00pm 18.6 17.9 12.1 66 3.6 ESE 7 11 4 6 1012.1 1012.0 0.0
25/03:30pm 19.1 18.9 11.9 63 4.0 E 4 6 2 3 1012.3 1012.2 0.0
25/03:00pm 18.1 17.9 11.7 66 3.5 NNE 4 6 2 3 1012.5 1012.4 0.0
25/02:30pm 18.1 17.3 11.2 64 3.7 NE 6 7 3 4 1012.6 1012.5 0.0
25/02:00pm 18.2 17.6 11.7 66 3.6 NNE 6 9 3 5 1013.0 1012.9 0.0
25/01:30pm 17.2 16.7 10.8 66 3.4 N 4 7 2 4 1013.4 1013.3 0.0
25/01:00pm 16.7 15.8 10.8 68 3.2 N 6 7 3 4 1013.8 1013.7 0.0
25/12:30pm 16.4 15.6 10.9 70 2.9 N 6 7 3 4 1014.2 1014.1 0.0
25/12:00pm 16.0 15.4 10.5 70 2.9 N 4 6 2 3 1014.5 1014.4 0.0
25/11:30am 15.8 14.8 10.3 70 2.9 N 6 7 3 4 1014.8 1014.7 0.0
25/11:00am 15.7 15.0 10.2 70 2.9 NNE 4 11 2 6 1014.9 1014.8 0.0
25/10:30am 15.0 14.4 10.4 74 2.4 WNW 4 7 2 4 1015.0 1014.9 0.0
25/10:00am 15.2 12.7 9.8 70 2.8 NNW 13 20 7 11 1015.0 1014.9 0.0
25/09:30am 15.2 11.2 10.4 73 2.5 N 22 28 12 15 1014.8 1014.7 0.0
25/09:00am 15.1 11.5 10.7 75 2.3 N 20 24 11 13 1014.7 1014.6 0.0
25/08:30am 15.0 12.4 10.6 75 2.3 N 15 20 8 11 1014.8 1014.7 0.0
25/08:00am 14.0 12.8 9.6 75 2.3 W 6 7 3 4 1015.1 1015.0 0.0
25/07:30am 13.7 12.5 9.6 76 2.1 SSE 6 9 3 5 1015.0 1014.9 0.0
25/07:00am 15.1 11.4 10.3 73 2.5 N 20 26 11 14 1015.4 1015.3 0.0
25/06:30am 15.0 11.3 10.0 72 2.6 NNE 20 26 11 14 1015.0 1014.9 0.0
25/06:00am 14.9 11.2 10.1 73 2.5 NNE 20 22 11 12 1015.4 1015.3 0.0
25/05:30am 15.1 11.4 10.3 73 2.5 NNE 20 28 11 15 1015.7 1015.6 0.0
25/05:00am 14.8 10.9 9.6 71 2.7 NNE 20 24 11 13 1015.8 1015.7 0.0
25/04:30am 14.7 11.3 9.3 70 2.8 NNE 17 20 9 11 1016.3 1016.3 0.0
25/04:00am 14.7 10.3 8.9 68 2.9 NNE 22 28 12 15 1016.4 1016.4 0.0
25/03:30am 14.9 10.6 9.3 69 2.9 NNE 22 28 12 15 1016.9 1016.9 0.0
25/03:00am 14.6 10.6 9.0 69 2.8 NNE 20 26 11 14 1017.3 1017.3 0.0
25/02:30am 14.7 9.8 8.6 67 3.1 NNE 24 30 13 16 1017.8 1017.8 0.0
25/02:00am 14.6 10.1 8.5 67 3.1 NNE 22 28 12 15 1018.0 1018.0 0.0
25/01:30am 14.6 10.6 9.2 70 2.8 NNE 20 26 11 14 1018.1 1018.1 0.0
25/01:00am 14.5 10.7 8.9 69 2.8 NE 19 24 10 13 1018.4 1018.4 0.0
25/12:30am 14.7 10.3 9.1 69 2.9 NNE 22 26 12 14 1019.0 1019.0 0.0
25/12:00am 14.8 10.6 9.8 72 2.6 NNE 22 28 12 15 1019.4 1019.4 0.0
 
Date/Time
EDT
Temp
°C
App
Temp
°C
Dew
Point
°C
Rel
Hum
%
Delta-T
°C
Wind Press
QNH
hPa
Press
MSL
hPa
Rain since
9am
mm
Dir  Spd
km/h
Gust
km/h
Spd
kts
Gust
kts
24/11:30pm 14.7 10.1 9.7 72 2.6 NE 24 28 13 15 1019.8 1019.8 0.0
24/11:00pm 14.5 11.0 10.3 76 2.2 NE 19 20 10 11 1019.9 1019.9 0.0
24/10:30pm 14.7 10.7 10.5 76 2.2 NE 22 26 12 14 1020.3 1020.3 0.0
24/10:00pm 14.8 10.9 10.8 77 2.1 NE 22 30 12 16 1020.2 1020.2 0.0

Latest Capital City Observations: Canberra | Sydney | Melbourne | Brisbane | Adelaide | Perth | Hobart | Darwin

Other Formats:

Comma delimited format used in spreadsheet applications
http://www.bom.gov.au/fwo/IDT60901/IDT60901.94988.axf

JavaScript Object Notation format (JSON) in row-major order
http://www.bom.gov.au/fwo/IDT60901/IDT60901.94988.json